Time;durP1;ratioP1;P1;durP2;ratioP2;P2;SDS_P1;SDS_P2;PMS_P1;PMS_P2;Temp;Humidity;BMP_temperature;BMP_pressure;BME280_temperature;BME280_humidity;BME280_pressure;Samples;Min_cycle;Max_cycle;Signal;HPM_P1;HPM_P2
2023/06/15 00:01:42;;;;;;;8.27;6.20;;;;;;;17.80;100.00;94668.03;4998490;28;20225;-87
2023/06/15 00:04:07;;;;;;;8.57;6.25;;;;;;;17.88;100.00;94680.84;4995097;28;20169;-88
2023/06/15 00:06:33;;;;;;;7.95;5.93;;;;;;;17.39;100.00;94605.78;4994801;28;20534;-88
2023/06/15 00:08:59;;;;;;;8.48;6.53;;;;;;;17.80;100.00;94669.91;4994721;28;20215;-88
2023/06/15 00:11:25;;;;;;;18.80;6.72;;;;;;;17.10;100.00;94573.44;4994940;28;20185;-88
2023/06/15 00:13:51;;;;;;;10.40;7.35;;;;;;;17.65;100.00;94655.44;4994832;28;20299;-88
2023/06/15 00:16:18;;;;;;;12.07;7.95;;;;;;;17.87;100.00;94689.09;4993159;28;21297;-88
2023/06/15 00:18:47;;;;;;;10.48;7.95;;;;;;;17.60;100.00;94650.06;4994779;28;20203;-88
2023/06/15 00:21:15;;;;;;;11.17;8.77;;;;;;;17.84;100.00;94703.72;4992756;28;20444;-88
2023/06/15 00:23:41;;;;;;;11.20;8.45;;;;;;;17.63;100.00;94668.22;4994464;28;20161;-88
2023/06/15 00:26:06;;;;;;;11.30;7.80;;;;;;;17.59;100.00;94653.78;5009468;28;20271;-88
2023/06/15 00:28:32;;;;;;;10.93;7.95;;;;;;;17.89;100.00;94695.78;4994636;28;20157;-88
2023/06/15 00:30:57;;;;;;;11.07;7.80;;;;;;;17.68;100.00;94660.25;4994268;28;20165;-88
2023/06/15 00:33:23;;;;;;;11.48;8.40;;;;;;;17.80;100.00;94669.91;4994234;28;20185;-88
2023/06/15 00:36:17;;;;;;;10.88;8.23;;;;;;;17.87;100.00;94681.09;4994339;28;20157;-87
2023/06/15 00:38:42;;;;;;;10.75;8.00;;;;;;;17.71;100.00;94659.75;4994717;28;20168;-87
2023/06/15 00:41:08;;;;;;;11.65;7.90;;;;;;;17.83;100.00;94677.34;4994317;28;20947;-88
2023/06/15 00:43:35;;;;;;;10.57;7.63;;;;;;;17.31;100.00;94582.31;4992721;28;20197;-88
2023/06/15 00:46:03;;;;;;;11.77;8.35;;;;;;;17.80;100.00;94664.56;5009126;28;20173;-87
2023/06/15 00:48:30;;;;;;;11.68;8.13;;;;;;;17.68;100.00;94638.16;4993975;28;20226;-87
2023/06/15 00:50:56;;;;;;;12.35;9.23;;;;;;;17.93;100.00;94686.19;4993815;28;20170;-88
2023/06/15 00:53:22;;;;;;;12.02;8.60;;;;;;;17.73;100.00;94637.38;4993987;28;20271;-87
2023/06/15 00:55:48;;;;;;;11.55;8.63;;;;;;;17.96;100.00;94664.38;4993752;28;20172;-87
2023/06/15 00:58:15;;;;;;;11.05;7.88;;;;;;;17.97;100.00;94665.16;4994113;28;20165;-87
2023/06/15 01:00:41;;;;;;;9.82;7.70;;;;;;;17.94;100.00;94655.03;4994084;28;20197;-87
2023/06/15 01:03:06;;;;;;;11.30;7.32;;;;;;;18.03;100.00;94675.56;4993742;28;20177;-87
2023/06/15 01:05:35;;;;;;;13.15;7.80;;;;;;;18.12;100.00;94681.19;4992357;28;20169;-87
2023/06/15 01:08:07;;;;;;;12.23;8.45;;;;;;;18.10;100.00;94675.31;4994164;28;20531;-87
2023/06/15 01:10:34;;;;;;;11.45;8.70;;;;;;;18.11;100.00;94668.94;4993809;28;20191;-87
2023/06/15 01:13:02;;;;;;;13.10;8.65;;;;;;;18.13;100.00;94669.47;5008492;28;20851;-87
2023/06/15 01:15:27;;;;;;;14.55;8.98;;;;;;;18.20;100.00;94670.03;4993481;28;20168;-87
2023/06/15 01:17:57;;;;;;;13.45;9.10;;;;;;;18.15;100.00;94661.22;4992137;28;20173;-87
2023/06/15 01:20:42;;;;;;;11.57;9.07;;;;;;;18.25;100.00;94674.59;4998307;28;20173;-87
2023/06/15 01:23:27;;;;;;;12.80;9.73;;;;;;;18.27;100.00;94675.91;5001703;28;20256;-87
2023/06/15 01:26:10;;;;;;;15.15;10.10;;;;;;;18.26;100.00;94668.16;5002680;28;20181;-87
2023/06/15 01:28:41;;;;;;;15.02;9.65;;;;;;;18.20;100.00;94661.22;4998019;28;20313;-87
2023/06/15 01:31:09;;;;;;;14.18;10.23;;;;;;;18.12;100.00;94645.75;5008419;28;20227;-87
2023/06/15 01:33:44;;;;;;;12.73;8.75;;;;;;;18.10;100.00;94643.34;4993064;28;20196;-87
2023/06/15 01:36:09;;;;;;;17.58;9.70;;;;;;;17.95;100.00;94622.00;4993061;28;20248;-87
2023/06/15 01:38:36;;;;;;;14.60;10.27;;;;;;;17.91;100.00;94615.59;4991848;28;20649;-87
2023/06/15 01:41:03;;;;;;;16.00;10.23;;;;;;;17.86;100.00;94616.38;4992730;28;20153;-88
2023/06/15 01:43:32;;;;;;;12.40;9.38;;;;;;;18.14;100.00;94662.28;4992801;28;20157;-87
2023/06/15 01:45:58;;;;;;;13.57;9.45;;;;;;;17.81;100.00;94618.25;5008258;28;20196;-86
2023/06/15 01:48:25;;;;;;;15.73;9.85;;;;;;;17.94;100.00;94660.34;4991517;28;20586;-87
2023/06/15 01:50:51;;;;;;;14.50;10.02;;;;;;;17.64;100.00;94605.91;4991521;28;20381;-87
2023/06/15 01:53:17;;;;;;;12.68;9.05;;;;;;;17.94;100.00;94652.38;4992740;28;20748;-87
2023/06/15 01:55:43;;;;;;;17.10;10.73;;;;;;;17.73;100.00;94616.09;4992956;28;20162;-87
2023/06/15 01:58:11;;;;;;;15.55;10.65;;;;;;;17.85;100.00;94640.63;4993310;28;20235;-87
2023/06/15 02:00:37;;;;;;;12.90;9.98;;;;;;;17.70;100.00;94618.19;4992643;28;20264;-86
2023/06/15 02:03:02;;;;;;;14.10;10.48;;;;;;;17.85;100.00;94641.41;4993790;28;20266;-87
2023/06/15 02:05:28;;;;;;;12.93;9.75;;;;;;;17.71;100.00;94614.47;5001889;28;20168;-87
2023/06/15 02:07:54;;;;;;;15.95;9.90;;;;;;;17.13;100.00;94524.22;5002018;28;20230;-87
2023/06/15 02:10:22;;;;;;;20.10;8.93;;;;;;;17.98;100.00;94646.28;5002139;28;20172;-87
2023/06/15 02:12:47;;;;;;;18.55;9.20;;;;;;;17.98;100.00;94642.81;5020508;28;20192;-86
2023/06/15 02:15:13;;;;;;;12.85;9.60;;;;;;;17.70;100.00;94606.75;5027384;28;20194;-84
2023/06/15 02:17:39;;;;;;;16.23;10.77;;;;;;;17.92;100.00;94647.28;5027516;28;20169;-88
2023/06/15 02:20:10;;;;;;;13.82;9.75;;;;;;;17.94;100.00;94647.84;5011006;28;20668;-88
2023/06/15 02:22:36;;;;;;;14.73;10.15;;;;;;;17.94;100.00;94650.50;5010936;28;20625;-87
2023/06/15 02:25:01;;;;;;;14.05;9.95;;;;;;;17.73;100.00;94613.44;5012224;28;20160;-88
2023/06/15 02:27:27;;;;;;;16.83;11.40;;;;;;;17.78;100.00;94624.06;5027354;28;20168;-88
2023/06/15 02:29:52;;;;;;;15.30;9.73;;;;;;;17.82;100.00;94625.16;5012265;28;20590;-88
2023/06/15 02:32:31;;;;;;;14.93;10.93;;;;;;;17.87;100.00;94638.50;5027476;28;20180;-88
2023/06/15 02:34:58;;;;;;;15.75;10.70;;;;;;;17.88;100.00;94634.78;5017618;28;20206;-88
2023/06/15 02:37:24;;;;;;;15.82;10.43;;;;;;;17.89;100.00;94641.72;5000399;28;20172;-88
2023/06/15 02:39:49;;;;;;;14.15;9.35;;;;;;;17.43;100.00;94564.28;4997970;28;21870;-88
2023/06/15 02:42:15;;;;;;;16.08;9.70;;;;;;;17.80;100.00;94617.44;5000270;28;20165;-89
2023/06/15 02:44:40;;;;;;;15.48;10.90;;;;;;;17.69;100.00;94605.94;5014974;28;20231;-89
2023/06/15 02:47:06;;;;;;;15.50;10.00;;;;;;;17.73;100.00;94610.75;5000821;28;20176;-88
2023/06/15 02:49:31;;;;;;;14.52;9.60;;;;;;;17.73;100.00;94606.22;5000480;28;20228;-89
2023/06/15 02:51:56;;;;;;;13.05;9.27;;;;;;;17.64;100.00;94595.25;4999934;28;20177;-88
2023/06/15 02:54:23;;;;;;;16.67;9.73;;;;;;;17.86;100.00;94628.91;5001871;28;20275;-88
2023/06/15 02:56:49;;;;;;;13.98;10.25;;;;;;;17.23;100.00;94525.09;5001944;28;20203;-88
2023/06/15 02:59:15;;;;;;;12.63;9.55;;;;;;;17.56;100.00;94577.09;5004116;28;20184;-88
2023/06/15 03:01:40;;;;;;;17.30;10.68;;;;;;;17.75;100.00;94606.75;5008020;28;20216;-88
2023/06/15 03:04:09;;;;;;;14.57;10.75;;;;;;;18.01;100.00;94644.91;5005073;28;20543;-88
2023/06/15 03:06:36;;;;;;;17.23;10.18;;;;;;;17.76;100.00;94600.38;5015472;28;20165;-89
2023/06/15 03:09:02;;;;;;;16.83;10.77;;;;;;;17.62;100.00;94588.63;5013940;28;20180;-88
2023/06/15 03:11:28;;;;;;;14.70;10.43;;;;;;;17.90;100.00;94614.78;5014133;28;20194;-89
2023/06/15 03:13:53;;;;;;;12.02;9.52;;;;;;;17.82;100.00;94601.97;5015322;28;20199;-89
2023/06/15 03:16:20;;;;;;;13.15;9.90;;;;;;;17.94;100.00;94621.22;5030575;28;20173;-88
2023/06/15 03:18:46;;;;;;;14.32;10.52;;;;;;;17.93;100.00;94611.59;5030419;28;20173;-88
2023/06/15 03:21:12;;;;;;;15.90;9.70;;;;;;;17.79;100.00;94583.09;5008253;28;20180;-88
2023/06/15 03:23:38;;;;;;;16.52;10.05;;;;;;;17.87;100.00;94585.22;5007426;28;20157;-88
2023/06/15 03:26:06;;;;;;;16.63;9.88;;;;;;;18.18;100.00;94634.03;5004970;28;20563;-87
2023/06/15 03:28:37;;;;;;;18.80;11.30;;;;;;;17.82;100.00;94577.22;5003638;28;20176;-88
2023/06/15 03:31:04;;;;;;;16.77;10.48;;;;;;;18.17;100.00;94632.44;5013165;28;20165;-86
2023/06/15 03:33:30;;;;;;;15.00;11.07;;;;;;;18.00;100.00;94611.34;5014990;28;20199;-85
2023/06/15 03:35:57;;;;;;;15.30;10.68;;;;;;;17.81;100.00;94576.44;5013605;28;20172;-81
2023/06/15 03:38:23;;;;;;;15.32;11.00;;;;;;;18.18;100.00;94632.19;5015123;28;20177;-82
2023/06/15 03:40:49;;;;;;;13.15;10.07;;;;;;;18.19;100.00;94632.97;5014621;28;20164;-82
2023/06/15 03:43:15;;;;;;;17.38;10.68;;;;;;;18.15;100.00;94624.72;5014881;28;20148;-82
2023/06/15 03:45:40;;;;;;;14.40;10.27;;;;;;;18.17;100.00;94630.56;5014565;28;20348;-81
2023/06/15 03:48:06;;;;;;;17.52;9.88;;;;;;;18.19;100.00;94632.97;5014596;28;20161;-81
2023/06/15 03:50:32;;;;;;;14.05;9.73;;;;;;;18.07;100.00;94611.94;5014702;28;20173;-82
2023/06/15 03:52:58;;;;;;;22.85;11.75;;;;;;;18.20;100.00;94635.38;5004039;28;20172;-82
2023/06/15 03:55:25;;;;;;;20.27;12.18;;;;;;;18.18;100.00;94639.38;5003587;28;20172;-84
2023/06/15 03:57:50;;;;;;;15.65;11.52;;;;;;;18.16;100.00;94634.34;5002391;28;20177;-80
2023/06/15 04:00:16;;;;;;;16.15;11.48;;;;;;;18.09;100.00;94620.44;5002926;28;20661;-85
2023/06/15 04:02:41;;;;;;;17.02;12.02;;;;;;;18.16;100.00;94625.53;4994771;28;20243;-81
2023/06/15 04:05:07;;;;;;;18.60;11.55;;;;;;;18.04;100.00;94602.59;4997631;28;20184;-85
2023/06/15 04:07:33;;;;;;;18.50;12.52;;;;;;;17.98;100.00;94597.53;5003251;28;20173;-85
2023/06/15 04:09:58;;;;;;;16.55;11.45;;;;;;;18.30;100.00;94646.06;5004513;28;20172;-85
2023/06/15 04:12:24;;;;;;;14.98;10.77;;;;;;;18.27;100.00;94635.13;5003283;28;20177;-83
2023/06/15 04:14:49;;;;;;;16.42;12.07;;;;;;;18.22;100.00;94619.16;5003931;28;20235;-84
2023/06/15 04:17:15;;;;;;;16.67;11.55;;;;;;;18.47;100.00;94643.97;5002105;28;20176;-87
2023/06/15 04:19:40;;;;;;;17.52;10.85;;;;;;;18.58;100.00;94644.81;5000703;28;20251;-83
2023/06/15 04:22:06;;;;;;;18.42;11.43;;;;;;;18.32;100.00;94584.50;4994435;28;20161;-84
2023/06/15 04:24:32;;;;;;;15.52;11.23;;;;;;;18.40;100.00;94594.66;4994407;28;20176;-88
2023/06/15 04:26:57;;;;;;;17.95;10.82;;;;;;;18.59;100.00;94593.09;5009031;28;20173;-84
2023/06/15 04:29:23;;;;;;;16.60;11.15;;;;;;;18.65;100.00;94586.69;5003510;28;20188;-84
2023/06/15 04:31:55;;;;;;;12.50;8.85;;;;;;;18.71;100.00;94600.81;5002238;28;20305;-84
2023/06/15 04:34:24;;;;;;;12.40;9.02;;;;;;;19.04;100.00;94639.47;5019658;28;20187;-84
2023/06/15 04:36:50;;;;;;;11.27;8.07;;;;;;;18.89;99.23;94639.47;4997724;28;20184;-86
2023/06/15 04:39:16;;;;;;;11.07;7.90;;;;;;;18.87;98.93;94652.28;4993801;28;20161;-83
2023/06/15 04:41:42;;;;;;;11.77;8.23;;;;;;;18.75;99.82;94652.56;4993871;28;20653;-84
2023/06/15 04:44:08;;;;;;;11.40;8.38;;;;;;;18.50;100.00;94631.19;4993473;28;20177;-88
2023/06/15 04:46:36;;;;;;;9.98;8.02;;;;;;;18.50;100.00;94617.84;4993826;28;20157;-86
2023/06/15 04:49:03;;;;;;;10.98;8.25;;;;;;;18.50;100.00;94608.00;4993914;28;20180;-89
2023/06/15 04:51:30;;;;;;;9.95;7.78;;;;;;;18.60;100.00;94618.66;5008901;28;20162;-88
2023/06/15 04:54:03;;;;;;;11.68;7.72;;;;;;;18.57;100.00;94621.09;4993727;28;20280;-88
2023/06/15 04:56:29;;;;;;;12.35;9.20;;;;;;;18.66;100.00;94659.47;4992523;28;20547;-89
2023/06/15 04:58:54;;;;;;;10.82;7.97;;;;;;;18.61;100.00;94654.94;5000010;28;20181;-89
2023/06/15 05:01:20;;;;;;;13.10;9.05;;;;;;;18.31;100.00;94613.03;5002723;28;20222;-89
2023/06/15 05:03:45;;;;;;;11.27;7.82;;;;;;;18.55;100.00;94657.84;5011168;28;20181;-89
2023/06/15 05:06:11;;;;;;;9.45;8.10;;;;;;;18.27;100.00;94611.94;4992400;28;20196;-88
2023/06/15 05:08:37;;;;;;;9.15;7.30;;;;;;;18.27;100.00;94619.13;4994057;28;20168;-85
2023/06/15 05:11:03;;;;;;;11.18;8.32;;;;;;;18.58;100.00;94671.47;4993577;28;20207;-89
2023/06/15 05:13:29;;;;;;;8.13;6.22;;;;;;;18.58;99.48;94676.00;5008665;28;20632;-90
2023/06/15 05:15:55;;;;;;;11.13;7.00;;;;;;;18.35;100.00;94634.59;4992834;28;20167;-84
2023/06/15 05:18:21;;;;;;;9.88;7.38;;;;;;;18.30;100.00;94622.09;4992946;28;20252;-84
2023/06/15 05:20:46;;;;;;;10.30;7.50;;;;;;;18.68;100.00;94678.69;4993273;28;20277;-84
2023/06/15 05:23:13;;;;;;;11.38;7.85;;;;;;;18.73;100.00;94674.16;4991978;28;20231;-85
2023/06/15 05:25:38;;;;;;;9.52;7.50;;;;;;;18.89;100.00;94677.63;4992798;28;20177;-82
2023/06/15 05:28:03;;;;;;;11.27;7.28;;;;;;;18.96;99.70;94678.16;4999029;28;20676;-82
2023/06/15 05:30:31;;;;;;;9.98;7.28;;;;;;;18.97;99.58;94666.41;5003435;28;20251;-82
2023/06/15 05:32:57;;;;;;;9.25;6.88;;;;;;;19.08;97.69;94676.03;5003294;28;20173;-82
2023/06/15 05:35:22;;;;;;;11.35;7.03;;;;;;;19.07;97.43;94679.75;5000580;28;20216;-81
2023/06/15 05:37:48;;;;;;;7.95;6.75;;;;;;;19.14;98.08;94674.94;5007905;28;20169;-83
2023/06/15 05:40:13;;;;;;;9.45;7.25;;;;;;;19.13;99.02;94657.34;4993073;28;20161;-85
2023/06/15 05:42:39;;;;;;;12.73;7.78;;;;;;;19.31;99.08;94661.31;5012835;28;20191;-84
2023/06/15 05:45:05;;;;;;;8.73;7.13;;;;;;;19.46;98.71;94681.88;5016663;28;20200;-86
2023/06/15 05:47:31;;;;;;;9.23;7.40;;;;;;;;;;5000384;28;20177;-87
2023/06/15 05:49:56;;;;;;;9.48;7.05;;;;;;;19.42;94.93;94659.44;5000615;28;20188;-88
2023/06/15 05:52:22;;;;;;;10.00;7.47;;;;;;;19.41;94.86;94668.50;4998922;28;20168;-88
2023/06/15 05:54:47;;;;;;;12.13;7.35;;;;;;;19.38;95.31;94672.50;5014149;28;20189;-87
2023/06/15 05:57:13;;;;;;;9.18;7.78;;;;;;;19.47;96.32;94680.75;4992972;28;20665;-87
2023/06/15 05:59:39;;;;;;;8.52;7.50;;;;;;;19.50;97.00;94691.75;4992839;28;20248;-87
2023/06/15 06:02:05;;;;;;;12.40;7.50;;;;;;;19.35;97.02;94661.59;4992717;28;21192;-87
2023/06/15 06:04:30;;;;;;;8.90;6.90;;;;;;;19.43;97.02;94655.69;4991510;28;20169;-87
2023/06/15 06:06:56;;;;;;;10.52;8.18;;;;;;;19.51;97.26;94671.19;4992554;28;20180;-87
2023/06/15 06:09:21;;;;;;;10.55;8.23;;;;;;;19.42;95.34;94641.53;5007728;28;20256;-87
2023/06/15 06:11:47;;;;;;;11.65;7.43;;;;;;;19.71;96.29;94676.50;4992638;28;20176;-87
2023/06/15 06:14:16;;;;;;;10.02;7.75;;;;;;;19.81;94.36;94686.31;4991363;28;20685;-87
2023/06/15 06:16:44;;;;;;;11.48;8.13;;;;;;;19.57;93.46;94676.25;4992669;28;20169;-87
2023/06/15 06:19:09;;;;;;;11.48;7.97;;;;;;;19.56;94.06;94669.28;4992762;28;20248;-87
2023/06/15 06:21:35;;;;;;;11.63;7.93;;;;;;;19.37;94.02;94656.78;4993297;28;20253;-88
2023/06/15 06:24:02;;;;;;;11.05;8.20;;;;;;;19.39;94.64;94651.94;4992600;28;20208;-88
2023/06/15 06:26:28;;;;;;;12.13;8.27;;;;;;;19.39;93.90;94649.28;5007771;28;20264;-88
2023/06/15 06:28:54;;;;;;;9.73;7.60;;;;;;;19.52;94.47;94659.44;4995432;28;20169;-88
2023/06/15 06:31:19;;;;;;;14.48;8.73;;;;;;;19.46;94.05;94641.81;4995437;28;20173;-88
2023/06/15 06:33:45;;;;;;;13.13;7.93;;;;;;;19.87;94.48;94694.06;4995133;28;20545;-88
2023/06/15 06:36:10;;;;;;;17.35;8.55;;;;;;;19.55;96.11;94645.53;4995159;28;20173;-88
2023/06/15 06:38:36;;;;;;;11.57;9.20;;;;;;;19.83;96.29;94655.59;4995178;28;20176;-88
2023/06/15 06:41:02;;;;;;;16.77;8.30;;;;;;;19.86;95.71;94649.72;4995185;28;20300;-88
2023/06/15 06:43:28;;;;;;;12.65;8.98;;;;;;;19.75;93.47;94621.44;4996329;28;20582;-88
2023/06/15 06:45:53;;;;;;;10.73;8.38;;;;;;;20.42;92.73;94694.09;5011438;28;20187;-88
2023/06/15 06:48:18;;;;;;;11.55;9.02;;;;;;;20.19;90.92;94652.75;4995071;28;20172;-88
2023/06/15 06:50:44;;;;;;;16.90;9.93;;;;;;;20.38;92.15;94664.47;4995030;28;21080;-88
2023/06/15 06:53:11;;;;;;;13.15;8.95;;;;;;;20.57;91.67;94696.72;4994855;28;20196;-88
2023/06/15 06:55:36;;;;;;;11.98;8.80;;;;;;;20.55;92.47;94664.88;4999012;28;20624;-87
2023/06/15 06:58:02;;;;;;;11.85;8.40;;;;;;;20.62;90.53;94689.44;5006010;28;20261;-88
2023/06/15 07:00:31;;;;;;;12.57;8.93;;;;;;;20.68;90.79;94704.38;5018486;28;20251;-87
2023/06/15 07:02:57;;;;;;;10.70;8.07;;;;;;;20.56;90.34;94661.13;5020663;28;20220;-87
2023/06/15 07:05:23;;;;;;;10.20;8.32;;;;;;;20.79;91.23;94680.22;4997173;28;20658;-88
2023/06/15 07:07:48;;;;;;;13.00;9.07;;;;;;;20.68;91.71;94655.41;4995229;28;20173;-88
2023/06/15 07:10:14;;;;;;;15.63;9.55;;;;;;;20.73;90.03;94650.06;4999415;28;20200;-88
2023/06/15 07:12:40;;;;;;;10.70;8.90;;;;;;;20.98;90.48;94700.72;5003261;28;20633;-88
2023/06/15 07:15:06;;;;;;;12.48;9.15;;;;;;;20.78;89.01;94658.03;5002847;28;20717;-87
2023/06/15 07:17:32;;;;;;;14.32;9.02;;;;;;;20.91;90.16;94689.53;5018516;28;20534;-87
2023/06/15 07:19:57;;;;;;;15.30;9.25;;;;;;;21.03;92.48;94697.19;5021402;28;20175;-87
2023/06/15 07:22:23;;;;;;;11.10;8.82;;;;;;;21.13;91.08;94689.06;5022814;28;20179;-87
2023/06/15 07:24:51;;;;;;;11.80;9.05;;;;;;;21.10;89.43;94701.13;5013657;28;20153;-87
2023/06/15 07:27:18;;;;;;;12.05;8.30;;;;;;;20.83;89.42;94671.38;5008838;28;20647;-85
2023/06/15 07:29:44;;;;;;;16.48;8.60;;;;;;;20.36;89.58;94605.09;5003452;28;20181;-86
2023/06/15 07:32:10;;;;;;;14.95;9.27;;;;;;;20.84;89.89;94690.91;5020923;28;20564;-86
2023/06/15 07:34:36;;;;;;;11.95;8.55;;;;;;;20.76;92.00;94680.81;5004556;28;20705;-83
2023/06/15 07:37:02;;;;;;;14.48;9.70;;;;;;;20.70;92.14;94654.06;5003476;28;20169;-86
2023/06/15 07:39:28;;;;;;;13.60;9.75;;;;;;;21.14;89.97;94700.56;5004144;28;20188;-85
2023/06/15 07:41:53;;;;;;;15.25;8.95;;;;;;;20.87;88.38;94668.94;5003401;28;20191;-84
2023/06/15 07:44:19;;;;;;;12.90;9.20;;;;;;;20.95;88.71;94692.41;5014921;28;20626;-84
2023/06/15 07:46:44;;;;;;;14.98;8.88;;;;;;;20.75;88.60;94663.16;5023963;28;20204;-87
2023/06/15 07:49:10;;;;;;;12.77;9.38;;;;;;;20.95;88.29;94687.06;4995676;28;20288;-86
2023/06/15 07:51:35;;;;;;;15.50;9.50;;;;;;;20.83;89.02;94692.78;4999361;28;20169;-85
2023/06/15 07:54:01;;;;;;;17.98;9.80;;;;;;;20.86;89.38;94684.19;5018821;28;20219;-85
2023/06/15 07:56:27;;;;;;;13.15;8.82;;;;;;;20.74;88.93;94658.88;5002081;28;20595;-85
2023/06/15 07:58:52;;;;;;;12.90;8.82;;;;;;;20.89;89.20;94691.66;5002963;28;20743;-86
2023/06/15 08:01:18;;;;;;;13.85;9.50;;;;;;;20.83;90.93;94689.31;5010938;28;20233;-86
2023/06/15 08:03:43;;;;;;;13.30;10.48;;;;;;;20.78;91.89;94687.47;4995131;28;20161;-80
2023/06/15 08:06:10;;;;;;;16.73;10.25;;;;;;;20.66;92.02;94682.47;4994600;28;20161;-83
2023/06/15 08:08:36;;;;;;;15.50;10.82;;;;;;;20.68;92.66;94685.66;4994707;28;20169;-81
2023/06/15 08:11:01;;;;;;;14.23;10.20;;;;;;;20.74;93.06;94689.09;4994755;28;20247;-80
2023/06/15 08:13:27;;;;;;;15.15;10.20;;;;;;;20.63;91.94;94669.66;5002150;28;20224;-81
2023/06/15 08:15:52;;;;;;;16.52;9.60;;;;;;;20.57;93.04;94661.94;5003371;28;20173;-83
2023/06/15 08:18:18;;;;;;;14.63;9.88;;;;;;;20.68;91.52;94693.69;5005236;28;20169;-82
2023/06/15 08:20:43;;;;;;;14.07;9.30;;;;;;;20.71;91.50;94692.34;5000776;28;20172;-85
2023/06/15 08:23:08;;;;;;;15.98;9.88;;;;;;;20.46;92.29;94663.88;4994531;28;20161;-85
2023/06/15 08:25:34;;;;;;;13.70;9.63;;;;;;;20.57;93.87;94669.97;4994410;28;20176;-84
2023/06/15 08:28:01;;;;;;;15.10;10.77;;;;;;;20.55;94.54;94640.81;4994333;28;20180;-85
2023/06/15 08:30:26;;;;;;;14.40;11.05;;;;;;;20.69;96.18;94663.19;5009311;28;20566;-85
2023/06/15 08:32:52;;;;;;;13.85;9.85;;;;;;;20.60;94.67;94631.94;4992933;28;20177;-85
2023/06/15 08:35:17;;;;;;;14.15;10.25;;;;;;;21.00;92.40;94695.88;4994456;28;20184;-85
2023/06/15 08:37:43;;;;;;;15.77;11.38;;;;;;;20.97;92.79;94684.91;4999251;28;20267;-85
2023/06/15 08:40:09;;;;;;;13.48;11.15;;;;;;;20.95;93.87;94674.50;5018323;28;20195;-84
2023/06/15 08:42:34;;;;;;;18.73;11.05;;;;;;;21.13;92.90;94705.13;5003121;28;20172;-86
2023/06/15 08:45:04;;;;;;;16.55;10.52;;;;;;;20.97;93.23;94680.38;5017839;28;20173;-86
2023/06/15 08:47:31;;;;;;;13.93;11.15;;;;;;;20.60;93.17;94624.72;5003374;28;20250;-86
2023/06/15 08:50:02;;;;;;;14.73;11.63;;;;;;;20.93;94.42;94670.50;5001953;28;20180;-86
2023/06/15 08:52:32;;;;;;;19.45;11.18;;;;;;;21.05;95.67;94703.84;5008270;28;20173;-86
2023/06/15 08:55:00;;;;;;;15.65;11.05;;;;;;;21.02;97.03;94701.72;5001314;28;20189;-85
2023/06/15 08:57:27;;;;;;;21.20;12.73;;;;;;;20.93;98.40;94689.25;4998903;28;20176;-86
2023/06/15 08:59:53;;;;;;;19.65;12.95;;;;;;;21.02;98.58;94712.44;5004202;28;20227;-86
2023/06/15 09:02:22;;;;;;;16.35;11.98;;;;;;;21.00;98.61;94714.63;5002424;28;20220;-86
2023/06/15 09:04:51;;;;;;;16.88;12.52;;;;;;;20.83;98.97;94694.66;5003999;28;20181;-86
2023/06/15 09:07:20;;;;;;;18.55;12.40;;;;;;;20.77;98.99;94722.53;5000456;28;20204;-86
2023/06/15 09:10:14;;;;;;;23.45;12.70;;;;;;;20.51;99.66;94717.31;5002526;28;20173;-86
2023/06/15 09:12:48;;;;;;;30.88;19.58;;;;;;;20.26;100.00;94717.41;5000239;28;20428;-85
2023/06/15 09:15:31;;;;;;;22.65;14.98;;;;;;;20.07;100.00;94709.19;4998413;28;20703;-85
2023/06/15 09:18:02;;;;;;;19.70;12.93;;;;;;;19.96;100.00;94711.13;5001266;28;20299;-84
2023/06/15 09:20:30;;;;;;;21.77;13.55;;;;;;;19.72;100.00;94709.34;4999718;28;20257;-85
2023/06/15 09:23:00;;;;;;;23.85;13.93;;;;;;;19.63;100.00;94717.09;4999599;28;20577;-84
2023/06/15 09:25:26;;;;;;;29.85;13.40;;;;;;;19.30;100.00;94661.56;5002084;28;20164;-84
2023/06/15 09:27:58;;;;;;;23.90;13.85;;;;;;;19.62;100.00;94712.84;5003314;28;20200;-84
2023/06/15 09:30:40;;;;;;;18.15;12.25;;;;;;;19.31;100.00;94687.19;5000501;28;20173;-85
2023/06/15 09:33:13;;;;;;;17.08;11.73;;;;;;;19.39;100.00;94727.50;5033247;28;20630;-84
2023/06/15 09:35:58;;;;;;;17.52;11.70;;;;;;;19.45;100.00;94721.13;5002060;28;20176;-88
2023/06/15 09:38:46;;;;;;;14.30;10.93;;;;;;;19.40;100.00;94706.94;5004500;28;20747;-90
2023/06/15 09:41:13;;;;;;;17.67;11.23;;;;;;;19.50;100.00;94726.47;5003300;28;20205;-88
2023/06/15 09:43:40;;;;;;;17.10;11.43;;;;;;;19.61;100.00;94729.13;5000529;28;20264;-85
2023/06/15 09:46:11;;;;;;;18.60;11.45;;;;;;;19.34;100.00;94684.00;5002119;28;20176;-86
2023/06/15 09:48:43;;;;;;;16.27;12.05;;;;;;;19.55;100.00;94706.94;4996981;28;20239;-90
2023/06/15 09:51:08;;;;;;;18.88;13.00;;;;;;;19.83;100.00;94740.28;4992883;28;20712;-86
2023/06/15 09:53:33;;;;;;;19.30;12.63;;;;;;;19.46;100.00;94677.28;4992700;28;20206;-90
2023/06/15 09:56:00;;;;;;;17.75;12.02;;;;;;;19.53;100.00;94672.53;5016562;28;20616;-89
2023/06/15 09:58:26;;;;;;;20.83;13.60;;;;;;;19.81;100.00;94719.19;4997400;28;20272;-91
2023/06/15 10:00:57;;;;;;;21.25;13.32;;;;;;;20.00;100.00;94734.63;5000215;28;20274;-89
2023/06/15 10:03:23;;;;;;;18.17;12.85;;;;;;;19.69;100.00;94673.28;5003095;28;20169;-92
2023/06/15 10:05:56;;;;;;;22.85;12.93;;;;;;;20.05;100.00;94729.28;4996124;28;20197;-90
2023/06/15 10:08:26;;;;;;;16.02;12.27;;;;;;;19.93;100.00;94716.22;4999617;28;20212;-89
2023/06/15 10:10:55;;;;;;;18.00;13.18;;;;;;;20.08;100.00;94734.06;5000160;28;20181;-91
2023/06/15 10:14:18;;;;;;;20.13;13.60;;;;;;;20.02;100.00;94730.63;4998121;28;20173;-89
2023/06/15 10:16:53;;;;;;;19.23;12.73;;;;;;;19.83;100.00;94701.00;4962300;28;20194;-89
2023/06/15 10:19:21;;;;;;;17.35;12.43;;;;;;;19.89;100.00;94726.63;4962185;28;20177;-86
2023/06/15 10:21:48;;;;;;;21.50;13.50;;;;;;;19.89;100.00;94734.66;4987327;28;20194;-85
2023/06/15 10:24:16;;;;;;;18.27;12.93;;;;;;;19.68;100.00;94694.91;5001505;28;20573;-89
2023/06/15 10:26:43;;;;;;;16.42;12.15;;;;;;;19.66;100.00;94681.03;5001239;28;20177;-86
2023/06/15 10:29:15;;;;;;;14.82;11.80;;;;;;;19.87;100.00;94709.28;4999970;28;20180;-88
2023/06/15 10:32:08;;;;;;;17.92;12.13;;;;;;;19.83;100.00;94701.00;5008142;28;20176;-87
2023/06/15 10:34:48;;;;;;;19.67;12.65;;;;;;;19.47;100.00;94628.19;5003137;28;20260;-88
2023/06/15 10:37:51;;;;;;;18.67;12.98;;;;;;;20.08;100.00;94707.34;4998282;28;20173;-86
2023/06/15 10:40:47;;;;;;;13.10;10.27;;;;;;;19.98;100.00;94710.84;4981875;28;20276;-87
2023/06/15 10:43:20;;;;;;;16.35;11.70;;;;;;;19.58;100.00;94669.84;4998876;28;20204;-88
2023/06/15 10:45:47;;;;;;;16.77;10.30;;;;;;;19.87;100.00;94719.97;4993626;28;20179;-91
2023/06/15 10:48:27;;;;;;;14.90;11.32;;;;;;;19.91;100.00;94721.03;5001098;28;20180;-91
2023/06/15 10:51:07;;;;;;;16.13;11.18;;;;;;;19.87;100.00;94710.09;5000767;28;20169;-88
2023/06/15 10:53:41;;;;;;;16.30;11.35;;;;;;;19.68;100.00;94684.22;5000688;28;20199;-88
2023/06/15 10:56:14;;;;;;;16.60;11.65;;;;;;;19.93;100.00;94692.16;5001075;28;20188;-82
2023/06/15 10:59:00;;;;;;;22.13;12.23;;;;;;;20.04;100.00;94714.31;5001378;28;20181;-86
2023/06/15 11:01:28;;;;;;;19.60;11.82;;;;;;;19.99;100.00;94701.75;5003574;28;20655;-85
2023/06/15 11:03:55;;;;;;;20.15;11.45;;;;;;;19.94;100.00;94707.94;4997728;28;20177;-86
2023/06/15 11:06:28;;;;;;;16.33;12.05;;;;;;;19.91;100.00;94697.78;4999582;28;20177;-87
2023/06/15 11:09:01;;;;;;;17.33;12.85;;;;;;;19.82;100.00;94670.00;5005574;28;20173;-89
2023/06/15 11:11:32;;;;;;;15.25;10.68;;;;;;;19.65;100.00;94615.31;4999672;28;20267;-87
2023/06/15 11:14:03;;;;;;;15.00;11.10;;;;;;;20.07;100.00;94661.09;5004292;28;20281;-86
2023/06/15 11:16:36;;;;;;;14.55;11.57;;;;;;;20.17;100.00;94644.22;5000243;28;20555;-87
2023/06/15 11:19:11;;;;;;;16.80;11.90;;;;;;;20.56;99.67;94695.09;5001552;28;20665;-86
2023/06/15 11:21:50;;;;;;;16.33;11.77;;;;;;;20.68;98.62;94691.00;5017723;28;20169;-87